CXA8837 ZSAM-ZGHA
Flight info
| Callsign | CXA8837 |
|---|---|
| Flight time | 1h 43m |
| Altitude | 34100 |
| Route | NUSPA7Y NUSPA DCT TEBON DCT PLT/K0876S1070 W19 OSONO/K0878S1040 W531 BIRIR W226 DALEP DAL1X |
| Aircraft | B738/M-SDE2E3FGHIRWXY/LB1 |
Departure
| Time | 2026-04-23 11:42 |
|---|---|
| Airport | Xiamen Gaoqi International Airport (ZSAM) |
Arrival
| Time | 2026-04-23 13:26 |
|---|---|
| Airport | Changsha Huanghua International Airport (ZGHA) |
| Time | Latitude | Longitude | Altitude | Speed | Heading |
|---|---|---|---|---|---|
| 2026-04-23 11:08 | 24.53787 | 118.12578 | 74 ft | 0 kts | 143° |
| 2026-04-23 11:26 | 24.53789 | 118.12576 | 74 ft | 2 kts | 145° |
| 2026-04-23 11:27 | 24.53802 | 118.12568 | 74 ft | 2 kts | 152° |
| 2026-04-23 11:27 | 24.53815 | 118.12560 | 74 ft | 2 kts | 149° |
| 2026-04-23 11:27 | 24.53816 | 118.12560 | 74 ft | 2 kts | 149° |
| 2026-04-23 11:29 | 24.53819 | 118.12557 | 74 ft | 2 kts | 149° |
| 2026-04-23 11:29 | 24.53832 | 118.12549 | 74 ft | 2 kts | 150° |
| 2026-04-23 11:30 | 24.53845 | 118.12540 | 74 ft | 2 kts | 149° |
| 2026-04-23 11:30 | 24.53858 | 118.12533 | 74 ft | 2 kts | 150° |
| 2026-04-23 11:30 | 24.53871 | 118.12524 | 74 ft | 2 kts | 150° |
| 2026-04-23 11:30 | 24.53884 | 118.12516 | 74 ft | 2 kts | 150° |
| 2026-04-23 11:31 | 24.53893 | 118.12510 | 74 ft | 0 kts | 150° |
| 2026-04-23 11:31 | 24.53899 | 118.12506 | 74 ft | 0 kts | 143° |
| 2026-04-23 11:33 | 24.53894 | 118.12510 | 74 ft | 2 kts | 141° |
| 2026-04-23 11:33 | 24.53876 | 118.12532 | 74 ft | 5 kts | 106° |
| 2026-04-23 11:33 | 24.53886 | 118.12575 | 74 ft | 5 kts | 54° |
| 2026-04-23 11:34 | 24.53910 | 118.12609 | 74 ft | 5 kts | 51° |
| 2026-04-23 11:34 | 24.53927 | 118.12632 | 74 ft | 4 kts | 51° |
| 2026-04-23 11:34 | 24.53948 | 118.12660 | 74 ft | 4 kts | 51° |
| 2026-04-23 11:34 | 24.53968 | 118.12687 | 74 ft | 4 kts | 52° |
| 2026-04-23 11:35 | 24.53993 | 118.12723 | 74 ft | 7 kts | 52° |
| 2026-04-23 11:35 | 24.54033 | 118.12780 | 74 ft | 11 kts | 52° |
| 2026-04-23 11:35 | 24.54091 | 118.12863 | 74 ft | 15 kts | 56° |
| 2026-04-23 11:35 | 24.54145 | 118.12947 | 74 ft | 11 kts | 52° |
| 2026-04-23 11:36 | 24.54204 | 118.13032 | 74 ft | 16 kts | 52° |
| 2026-04-23 11:36 | 24.54280 | 118.13137 | 74 ft | 17 kts | 52° |
| 2026-04-23 11:36 | 24.54335 | 118.13210 | 73 ft | 8 kts | 37° |
| 2026-04-23 11:36 | 24.54402 | 118.13196 | 74 ft | 10 kts | 329° |
| 2026-04-23 11:37 | 24.54458 | 118.13245 | 74 ft | 13 kts | 53° |
| 2026-04-23 11:37 | 24.54523 | 118.13338 | 73 ft | 17 kts | 52° |
| 2026-04-23 11:37 | 24.54608 | 118.13456 | 73 ft | 21 kts | 52° |
| 2026-04-23 11:37 | 24.54710 | 118.13599 | 73 ft | 24 kts | 52° |
| 2026-04-23 11:38 | 24.54813 | 118.13742 | 73 ft | 23 kts | 51° |
| 2026-04-23 11:38 | 24.54912 | 118.13880 | 73 ft | 22 kts | 51° |
| 2026-04-23 11:38 | 24.55009 | 118.14016 | 73 ft | 22 kts | 52° |
| 2026-04-23 11:38 | 24.55095 | 118.14136 | 73 ft | 17 kts | 52° |
| 2026-04-23 11:39 | 24.55167 | 118.14217 | 73 ft | 8 kts | 3° |
| 2026-04-23 11:39 | 24.55202 | 118.14202 | 73 ft | 3 kts | 326° |
| 2026-04-23 11:39 | 24.55223 | 118.14185 | 73 ft | 3 kts | 322° |
| 2026-04-23 11:39 | 24.55246 | 118.14166 | 73 ft | 4 kts | 322° |
| 2026-04-23 11:40 | 24.55268 | 118.14146 | 73 ft | 4 kts | 322° |
| 2026-04-23 11:40 | 24.55291 | 118.14127 | 73 ft | 4 kts | 322° |
| 2026-04-23 11:40 | 24.55313 | 118.14108 | 73 ft | 4 kts | 315° |
| 2026-04-23 11:40 | 24.55327 | 118.14081 | 73 ft | 4 kts | 288° |
| 2026-04-23 11:41 | 24.55328 | 118.14050 | 73 ft | 4 kts | 255° |
| 2026-04-23 11:41 | 24.55314 | 118.14024 | 73 ft | 4 kts | 235° |
| 2026-04-23 11:41 | 24.55296 | 118.13998 | 73 ft | 4 kts | 232° |
| 2026-04-23 11:41 | 24.55208 | 118.13875 | 73 ft | 54 kts | 232° |
| 2026-04-23 11:42 | 24.54828 | 118.13340 | 74 ft | 122 kts | 232° |
| 2026-04-23 11:42 | 24.54184 | 118.12440 | 104 ft | 172 kts | 231° |
| 2026-04-23 11:42 | 24.53413 | 118.11404 | 844 ft | 169 kts | 232° |
| 2026-04-23 11:42 | 24.52712 | 118.10461 | 1617 ft | 166 kts | 236° |
| 2026-04-23 11:43 | 24.51997 | 118.09388 | 2166 ft | 185 kts | 236° |
| 2026-04-23 11:43 | 24.51174 | 118.08207 | 2783 ft | 203 kts | 236° |
| 2026-04-23 11:43 | 24.50248 | 118.06883 | 3037 ft | 232 kts | 235° |
| 2026-04-23 11:43 | 24.49206 | 118.05449 | 3011 ft | 244 kts | 234° |
| 2026-04-23 11:44 | 24.48137 | 118.03994 | 3005 ft | 246 kts | 234° |
| 2026-04-23 11:44 | 24.47067 | 118.02522 | 3003 ft | 246 kts | 234° |
| 2026-04-23 11:44 | 24.46014 | 118.01063 | 3004 ft | 243 kts | 234° |
| 2026-04-23 11:44 | 24.44938 | 117.99584 | 3055 ft | 255 kts | 234° |
| 2026-04-23 11:45 | 24.43810 | 117.98062 | 4066 ft | 257 kts | 234° |
| 2026-04-23 11:45 | 24.42729 | 117.96619 | 5430 ft | 244 kts | 234° |
| 2026-04-23 11:45 | 24.41704 | 117.95246 | 6566 ft | 238 kts | 234° |
| 2026-04-23 11:45 | 24.40648 | 117.93861 | 7497 ft | 241 kts | 230° |
| 2026-04-23 11:46 | 24.39378 | 117.92634 | 8410 ft | 247 kts | 221° |
| 2026-04-23 11:46 | 24.38014 | 117.91534 | 9366 ft | 247 kts | 220° |
| 2026-04-23 11:46 | 24.36623 | 117.90406 | 9806 ft | 253 kts | 221° |
| 2026-04-23 11:46 | 24.35222 | 117.89207 | 10702 ft | 255 kts | 223° |
| 2026-04-23 11:47 | 24.33870 | 117.88029 | 11724 ft | 251 kts | 223° |
| 2026-04-23 11:47 | 24.32496 | 117.86820 | 12480 ft | 259 kts | 223° |
| 2026-04-23 11:47 | 24.31098 | 117.85590 | 13399 ft | 259 kts | 225° |
| 2026-04-23 11:47 | 24.29916 | 117.84061 | 13883 ft | 271 kts | 244° |
| 2026-04-23 11:48 | 24.29147 | 117.82137 | 14514 ft | 282 kts | 250° |
| 2026-04-23 11:48 | 24.28368 | 117.80084 | 14955 ft | 301 kts | 247° |
| 2026-04-23 11:48 | 24.27451 | 117.77975 | 15435 ft | 317 kts | 245° |
| 2026-04-23 11:48 | 24.26409 | 117.75776 | 15957 ft | 331 kts | 244° |
| 2026-04-23 11:49 | 24.25307 | 117.73524 | 16420 ft | 346 kts | 244° |
| 2026-04-23 11:49 | 24.24137 | 117.71155 | 16814 ft | 361 kts | 243° |
| 2026-04-23 11:49 | 24.22910 | 117.68676 | 17284 ft | 372 kts | 243° |
| 2026-04-23 11:49 | 24.21677 | 117.66177 | 17854 ft | 379 kts | 243° |
| 2026-04-23 11:50 | 24.20426 | 117.63636 | 18644 ft | 380 kts | 244° |
| 2026-04-23 11:50 | 24.19177 | 117.61058 | 19264 ft | 384 kts | 245° |
| 2026-04-23 11:50 | 24.18204 | 117.58373 | 19889 ft | 387 kts | 253° |
| 2026-04-23 11:50 | 24.17639 | 117.55444 | 20454 ft | 392 kts | 262° |
| 2026-04-23 11:51 | 24.17460 | 117.52505 | 21044 ft | 396 kts | 268° |
| 2026-04-23 11:51 | 24.17536 | 117.49477 | 21662 ft | 399 kts | 272° |
| 2026-04-23 11:51 | 24.17929 | 117.46441 | 22097 ft | 407 kts | 281° |
| 2026-04-23 11:51 | 24.18806 | 117.43501 | 22744 ft | 411 kts | 290° |
| 2026-04-23 11:52 | 24.20081 | 117.40705 | 23323 ft | 416 kts | 296° |
| 2026-04-23 11:52 | 24.21593 | 117.37997 | 23793 ft | 423 kts | 299° |
| 2026-04-23 11:52 | 24.23244 | 117.35323 | 24402 ft | 425 kts | 301° |
| 2026-04-23 11:52 | 24.24969 | 117.32668 | 24924 ft | 430 kts | 301° |
| 2026-04-23 11:53 | 24.26741 | 117.30009 | 25416 ft | 434 kts | 301° |
| 2026-04-23 11:53 | 24.28528 | 117.27339 | 26186 ft | 431 kts | 301° |
| 2026-04-23 11:53 | 24.30096 | 117.24987 | 26545 ft | 436 kts | 301° |
| 2026-04-23 11:53 | 24.31868 | 117.22308 | 26994 ft | 440 kts | 301° |
| 2026-04-23 11:54 | 24.33668 | 117.19572 | 27514 ft | 442 kts | 301° |
| 2026-04-23 11:54 | 24.35284 | 117.17107 | 27984 ft | 444 kts | 301° |
| 2026-04-23 11:54 | 24.37077 | 117.14362 | 28521 ft | 445 kts | 300° |
| 2026-04-23 11:54 | 24.38883 | 117.11587 | 28949 ft | 449 kts | 301° |
| 2026-04-23 11:55 | 24.40681 | 117.08820 | 29441 ft | 451 kts | 300° |
| 2026-04-23 11:55 | 24.42507 | 117.06007 | 30209 ft | 446 kts | 300° |
| 2026-04-23 11:55 | 24.44293 | 117.03262 | 30944 ft | 442 kts | 300° |
| 2026-04-23 11:55 | 24.46066 | 117.00533 | 31608 ft | 439 kts | 300° |
| 2026-04-23 11:56 | 24.47871 | 116.97849 | 32228 ft | 438 kts | 302° |
| 2026-04-23 11:56 | 24.49671 | 116.95234 | 33007 ft | 431 kts | 300° |
| 2026-04-23 11:56 | 24.51428 | 116.92551 | 33744 ft | 426 kts | 299° |
| 2026-04-23 11:56 | 24.53129 | 116.89871 | 34043 ft | 428 kts | 298° |
| 2026-04-23 11:57 | 24.54798 | 116.87214 | 34042 ft | 428 kts | 298° |
| 2026-04-23 11:57 | 24.58188 | 116.81850 | 34054 ft | 424 kts | 298° |
| 2026-04-23 11:58 | 24.61579 | 116.76528 | 34047 ft | 427 kts | 299° |
| 2026-04-23 11:58 | 24.64987 | 116.71208 | 34047 ft | 425 kts | 298° |
| 2026-04-23 11:59 | 24.68416 | 116.65865 | 34050 ft | 426 kts | 298° |
| 2026-04-23 11:59 | 24.71820 | 116.60561 | 34052 ft | 425 kts | 298° |
| 2026-04-23 12:00 | 24.75205 | 116.55286 | 34063 ft | 425 kts | 298° |
| 2026-04-23 12:00 | 24.78620 | 116.49954 | 34055 ft | 424 kts | 298° |
| 2026-04-23 12:01 | 24.82009 | 116.44658 | 34062 ft | 425 kts | 298° |
| 2026-04-23 12:01 | 24.85394 | 116.39363 | 34069 ft | 424 kts | 298° |
| 2026-04-23 12:02 | 24.88782 | 116.34059 | 34075 ft | 423 kts | 297° |
| 2026-04-23 12:02 | 24.92171 | 116.28740 | 34075 ft | 424 kts | 297° |
| 2026-04-23 12:03 | 24.95558 | 116.23426 | 34080 ft | 423 kts | 297° |
| 2026-04-23 12:03 | 24.98648 | 116.18570 | 34078 ft | 422 kts | 297° |
| 2026-04-23 12:04 | 25.01890 | 116.13467 | 34082 ft | 422 kts | 297° |
| 2026-04-23 12:04 | 25.05054 | 116.08482 | 34083 ft | 421 kts | 297° |
| 2026-04-23 12:05 | 25.08411 | 116.03191 | 34082 ft | 421 kts | 297° |
| 2026-04-23 12:05 | 25.11768 | 115.97894 | 34086 ft | 422 kts | 297° |
| 2026-04-23 12:06 | 25.14951 | 115.92862 | 34086 ft | 420 kts | 297° |
| 2026-04-23 12:06 | 25.19658 | 115.85345 | 34086 ft | 420 kts | 297° |
| 2026-04-23 12:07 | 25.22943 | 115.80168 | 34086 ft | 418 kts | 297° |
| 2026-04-23 12:07 | 25.26166 | 115.75081 | 34081 ft | 420 kts | 297° |
| 2026-04-23 12:08 | 25.29409 | 115.69949 | 34081 ft | 416 kts | 297° |
| 2026-04-23 12:08 | 25.32734 | 115.64670 | 34081 ft | 415 kts | 297° |
| 2026-04-23 12:09 | 25.36037 | 115.59415 | 34081 ft | 418 kts | 297° |
| 2026-04-23 12:09 | 25.39368 | 115.54112 | 34085 ft | 413 kts | 297° |
| 2026-04-23 12:10 | 25.42632 | 115.48907 | 34083 ft | 413 kts | 297° |
| 2026-04-23 12:10 | 25.45903 | 115.43681 | 34082 ft | 415 kts | 297° |
| 2026-04-23 12:11 | 25.49173 | 115.38454 | 34084 ft | 412 kts | 296° |
| 2026-04-23 12:11 | 25.52381 | 115.33319 | 34085 ft | 413 kts | 296° |
| 2026-04-23 12:12 | 25.55647 | 115.28091 | 34088 ft | 410 kts | 296° |
| 2026-04-23 12:12 | 25.58492 | 115.23531 | 34089 ft | 410 kts | 296° |
| 2026-04-23 12:13 | 25.61527 | 115.18658 | 34091 ft | 410 kts | 296° |
| 2026-04-23 12:13 | 25.64700 | 115.13560 | 34101 ft | 410 kts | 296° |
| 2026-04-23 12:14 | 25.67939 | 115.08349 | 34101 ft | 409 kts | 296° |
| 2026-04-23 12:14 | 25.71180 | 115.03133 | 34106 ft | 408 kts | 296° |
| 2026-04-23 12:15 | 25.74731 | 114.98141 | 34102 ft | 421 kts | 306° |
| 2026-04-23 12:15 | 25.77058 | 114.96065 | 34106 ft | 435 kts | 316° |
| 2026-04-23 12:15 | 25.79766 | 114.94415 | 34106 ft | 448 kts | 325° |
| 2026-04-23 12:16 | 25.85838 | 114.92248 | 34103 ft | 468 kts | 339° |
| 2026-04-23 12:16 | 25.89146 | 114.91943 | 34100 ft | 487 kts | 351° |
| 2026-04-23 12:16 | 25.92541 | 114.92350 | 34103 ft | 505 kts | 2° |
| 2026-04-23 12:17 | 25.99415 | 114.94566 | 34103 ft | 515 kts | 9° |
| 2026-04-23 12:17 | 26.06210 | 114.97259 | 34099 ft | 515 kts | 11° |
| 2026-04-23 12:18 | 26.12850 | 114.99979 | 34098 ft | 516 kts | 11° |
| 2026-04-23 12:18 | 26.19667 | 115.02735 | 34094 ft | 518 kts | 11° |
| 2026-04-23 12:19 | 26.26431 | 115.05449 | 34092 ft | 516 kts | 11° |
| 2026-04-23 12:19 | 26.31705 | 115.07548 | 34096 ft | 518 kts | 10° |
| 2026-04-23 12:20 | 26.38552 | 115.10263 | 34099 ft | 520 kts | 10° |
| 2026-04-23 12:20 | 26.44975 | 115.12813 | 34102 ft | 518 kts | 10° |
| 2026-04-23 12:21 | 26.51815 | 115.15530 | 34105 ft | 520 kts | 10° |
| 2026-04-23 12:21 | 26.58637 | 115.18245 | 34103 ft | 518 kts | 10° |
| 2026-04-23 12:22 | 26.65491 | 115.20978 | 34107 ft | 521 kts | 10° |
| 2026-04-23 12:22 | 26.72323 | 115.23705 | 34100 ft | 520 kts | 9° |
| 2026-04-23 12:23 | 26.79155 | 115.26437 | 34100 ft | 521 kts | 9° |
| 2026-04-23 12:23 | 26.85964 | 115.29153 | 34101 ft | 522 kts | 9° |
| 2026-04-23 12:24 | 26.92826 | 115.31888 | 34104 ft | 518 kts | 9° |
| 2026-04-23 12:24 | 26.99655 | 115.34602 | 34099 ft | 522 kts | 9° |
| 2026-04-23 12:25 | 27.06521 | 115.37337 | 34108 ft | 521 kts | 9° |
| 2026-04-23 12:25 | 27.13356 | 115.40068 | 34107 ft | 521 kts | 9° |
| 2026-04-23 12:26 | 27.20055 | 115.42748 | 34103 ft | 524 kts | 9° |
| 2026-04-23 12:26 | 27.26833 | 115.45467 | 34105 ft | 522 kts | 9° |
| 2026-04-23 12:27 | 27.32543 | 115.47754 | 34106 ft | 526 kts | 9° |
| 2026-04-23 12:27 | 27.39106 | 115.50387 | 34106 ft | 526 kts | 9° |
| 2026-04-23 12:28 | 27.46004 | 115.53167 | 34112 ft | 522 kts | 9° |
| 2026-04-23 12:28 | 27.52902 | 115.55943 | 34107 ft | 525 kts | 8° |
| 2026-04-23 12:29 | 27.57315 | 115.57722 | 34116 ft | 524 kts | 8° |
| 2026-04-23 12:29 | 27.64211 | 115.60500 | 34114 ft | 527 kts | 8° |
| 2026-04-23 12:30 | 27.71138 | 115.63062 | 34111 ft | 515 kts | 1° |
| 2026-04-23 12:30 | 27.74587 | 115.63682 | 34111 ft | 495 kts | 351° |
| 2026-04-23 12:30 | 27.77997 | 115.63683 | 34110 ft | 477 kts | 342° |
| 2026-04-23 12:31 | 27.84390 | 115.62450 | 33907 ft | 451 kts | 332° |
| 2026-04-23 12:31 | 27.87364 | 115.61527 | 33630 ft | 435 kts | 328° |
| 2026-04-23 12:31 | 27.90202 | 115.60524 | 33354 ft | 427 kts | 327° |
| 2026-04-23 12:32 | 27.93035 | 115.59447 | 33081 ft | 429 kts | 326° |
| 2026-04-23 12:32 | 27.95839 | 115.58349 | 32825 ft | 430 kts | 326° |
| 2026-04-23 12:32 | 27.98678 | 115.57237 | 32589 ft | 429 kts | 326° |
| 2026-04-23 12:32 | 28.01494 | 115.56145 | 32348 ft | 429 kts | 326° |
| 2026-04-23 12:33 | 28.04335 | 115.55051 | 32100 ft | 431 kts | 326° |
| 2026-04-23 12:33 | 28.07186 | 115.53959 | 31844 ft | 432 kts | 327° |
| 2026-04-23 12:33 | 28.09996 | 115.52889 | 31612 ft | 432 kts | 327° |
| 2026-04-23 12:33 | 28.12880 | 115.51794 | 31367 ft | 434 kts | 327° |
| 2026-04-23 12:34 | 28.15723 | 115.50718 | 31107 ft | 433 kts | 327° |
| 2026-04-23 12:34 | 28.18599 | 115.49630 | 30744 ft | 435 kts | 328° |
| 2026-04-23 12:34 | 28.21493 | 115.48535 | 30356 ft | 435 kts | 328° |
| 2026-04-23 12:34 | 28.24296 | 115.47478 | 29861 ft | 434 kts | 328° |
| 2026-04-23 12:35 | 28.27153 | 115.46398 | 29339 ft | 434 kts | 328° |
| 2026-04-23 12:35 | 28.29986 | 115.45209 | 28832 ft | 426 kts | 324° |
| 2026-04-23 12:35 | 28.32578 | 115.43726 | 28321 ft | 413 kts | 316° |
| 2026-04-23 12:35 | 28.33888 | 115.42722 | 28037 ft | 410 kts | 312° |
| 2026-04-23 12:36 | 28.35288 | 115.41413 | 27707 ft | 404 kts | 307° |
| 2026-04-23 12:36 | 28.37241 | 115.39154 | 27199 ft | 400 kts | 302° |
| 2026-04-23 12:36 | 28.38925 | 115.36810 | 26710 ft | 396 kts | 298° |
| 2026-04-23 12:36 | 28.40345 | 115.34217 | 26201 ft | 381 kts | 290° |
| 2026-04-23 12:37 | 28.41361 | 115.31519 | 25691 ft | 367 kts | 283° |
| 2026-04-23 12:37 | 28.41970 | 115.29178 | 25259 ft | 360 kts | 279° |
| 2026-04-23 12:37 | 28.42484 | 115.26436 | 24749 ft | 358 kts | 275° |
| 2026-04-23 12:37 | 28.42741 | 115.23636 | 24228 ft | 356 kts | 269° |
| 2026-04-23 12:38 | 28.42555 | 115.19861 | 23577 ft | 362 kts | 262° |
| 2026-04-23 12:38 | 28.42319 | 115.17952 | 23242 ft | 363 kts | 261° |
| 2026-04-23 12:38 | 28.41918 | 115.15141 | 22743 ft | 361 kts | 260° |
| 2026-04-23 12:38 | 28.41505 | 115.12337 | 22261 ft | 360 kts | 260° |
| 2026-04-23 12:39 | 28.41097 | 115.09556 | 21861 ft | 358 kts | 261° |
| 2026-04-23 12:39 | 28.40694 | 115.06790 | 21464 ft | 359 kts | 261° |
| 2026-04-23 12:39 | 28.40285 | 115.03992 | 21087 ft | 359 kts | 261° |
| 2026-04-23 12:39 | 28.39877 | 115.01170 | 20723 ft | 357 kts | 261° |
| 2026-04-23 12:40 | 28.39477 | 114.98401 | 20371 ft | 356 kts | 262° |
| 2026-04-23 12:40 | 28.39075 | 114.95634 | 20014 ft | 357 kts | 262° |
| 2026-04-23 12:40 | 28.38680 | 114.92857 | 19656 ft | 357 kts | 262° |
| 2026-04-23 12:40 | 28.38285 | 114.90078 | 19297 ft | 355 kts | 262° |
| 2026-04-23 12:41 | 28.37894 | 114.87348 | 18944 ft | 354 kts | 262° |
| 2026-04-23 12:41 | 28.37496 | 114.84583 | 18581 ft | 354 kts | 262° |
| 2026-04-23 12:41 | 28.37102 | 114.81848 | 18230 ft | 353 kts | 262° |
| 2026-04-23 12:41 | 28.36705 | 114.79094 | 17871 ft | 354 kts | 262° |
| 2026-04-23 12:42 | 28.36306 | 114.76336 | 17513 ft | 353 kts | 262° |
| 2026-04-23 12:42 | 28.35906 | 114.73584 | 17158 ft | 353 kts | 262° |
| 2026-04-23 12:42 | 28.35506 | 114.70828 | 16798 ft | 352 kts | 262° |
| 2026-04-23 12:42 | 28.35102 | 114.68053 | 16436 ft | 352 kts | 263° |
| 2026-04-23 12:43 | 28.34702 | 114.65306 | 16078 ft | 351 kts | 263° |
| 2026-04-23 12:43 | 28.34304 | 114.62574 | 15720 ft | 350 kts | 263° |
| 2026-04-23 12:43 | 28.33903 | 114.59836 | 15360 ft | 350 kts | 263° |
| 2026-04-23 12:43 | 28.33504 | 114.57111 | 15000 ft | 349 kts | 263° |
| 2026-04-23 12:44 | 28.33109 | 114.54417 | 14643 ft | 347 kts | 263° |
| 2026-04-23 12:44 | 28.32711 | 114.51704 | 14282 ft | 348 kts | 263° |
| 2026-04-23 12:44 | 28.32316 | 114.49008 | 13923 ft | 348 kts | 263° |
| 2026-04-23 12:44 | 28.31915 | 114.46288 | 13555 ft | 346 kts | 263° |
| 2026-04-23 12:45 | 28.31522 | 114.43617 | 13203 ft | 346 kts | 263° |
| 2026-04-23 12:45 | 28.31123 | 114.40914 | 12838 ft | 346 kts | 263° |
| 2026-04-23 12:45 | 28.30732 | 114.38214 | 12475 ft | 344 kts | 265° |
| 2026-04-23 12:45 | 28.30548 | 114.35538 | 12111 ft | 343 kts | 271° |
| 2026-04-23 12:46 | 28.30581 | 114.32804 | 11748 ft | 342 kts | 275° |
| 2026-04-23 12:46 | 28.30698 | 114.30149 | 11389 ft | 340 kts | 276° |
| 2026-04-23 12:46 | 28.30831 | 114.27445 | 11022 ft | 341 kts | 276° |
| 2026-04-23 12:46 | 28.30949 | 114.24775 | 10655 ft | 340 kts | 276° |
| 2026-04-23 12:47 | 28.31039 | 114.22446 | 10333 ft | 334 kts | 275° |
| 2026-04-23 12:47 | 28.31126 | 114.19862 | 9973 ft | 326 kts | 275° |
| 2026-04-23 12:47 | 28.31199 | 114.17500 | 9804 ft | 313 kts | 275° |
| 2026-04-23 12:47 | 28.31267 | 114.15147 | 9789 ft | 295 kts | 276° |
| 2026-04-23 12:48 | 28.31332 | 114.12879 | 9638 ft | 283 kts | 276° |
| 2026-04-23 12:48 | 28.31399 | 114.10686 | 9399 ft | 276 kts | 276° |
| 2026-04-23 12:48 | 28.31467 | 114.08526 | 9153 ft | 269 kts | 276° |
| 2026-04-23 12:48 | 28.31496 | 114.06393 | 8907 ft | 270 kts | 271° |
| 2026-04-23 12:49 | 28.31245 | 114.04298 | 8662 ft | 272 kts | 262° |
| 2026-04-23 12:49 | 28.30781 | 114.02198 | 8412 ft | 272 kts | 258° |
| 2026-04-23 12:49 | 28.30285 | 114.00146 | 8174 ft | 271 kts | 258° |
| 2026-04-23 12:49 | 28.29805 | 113.98071 | 7927 ft | 271 kts | 259° |
| 2026-04-23 12:50 | 28.29351 | 113.95993 | 7683 ft | 271 kts | 259° |
| 2026-04-23 12:50 | 28.28912 | 113.93935 | 7435 ft | 269 kts | 260° |
| 2026-04-23 12:50 | 28.28469 | 113.91841 | 7187 ft | 269 kts | 259° |
| 2026-04-23 12:50 | 28.28033 | 113.89790 | 6940 ft | 269 kts | 259° |
| 2026-04-23 12:51 | 28.27594 | 113.87740 | 6694 ft | 269 kts | 259° |
| 2026-04-23 12:51 | 28.27150 | 113.85662 | 6444 ft | 269 kts | 259° |
| 2026-04-23 12:51 | 28.26708 | 113.83601 | 6197 ft | 268 kts | 259° |
| 2026-04-23 12:51 | 28.26267 | 113.81547 | 5951 ft | 266 kts | 259° |
| 2026-04-23 12:52 | 28.25828 | 113.79506 | 5886 ft | 263 kts | 259° |
| 2026-04-23 12:52 | 28.25392 | 113.77475 | 5884 ft | 267 kts | 259° |
| 2026-04-23 12:52 | 28.24853 | 113.75470 | 5883 ft | 267 kts | 250° |
| 2026-04-23 12:52 | 28.23822 | 113.73678 | 5882 ft | 273 kts | 227° |
| 2026-04-23 12:53 | 28.22277 | 113.72419 | 5884 ft | 275 kts | 208° |
| 2026-04-23 12:53 | 28.20502 | 113.71625 | 5885 ft | 276 kts | 196° |
| 2026-04-23 12:53 | 28.18594 | 113.71256 | 5885 ft | 277 kts | 185° |
| 2026-04-23 12:53 | 28.16677 | 113.71152 | 5883 ft | 275 kts | 181° |
| 2026-04-23 12:54 | 28.14749 | 113.71090 | 5882 ft | 274 kts | 182° |
| 2026-04-23 12:54 | 28.12821 | 113.70998 | 5883 ft | 278 kts | 183° |
| 2026-04-23 12:54 | 28.10900 | 113.70863 | 5884 ft | 276 kts | 184° |
| 2026-04-23 12:54 | 28.08978 | 113.70692 | 5885 ft | 275 kts | 185° |
| 2026-04-23 12:55 | 28.07067 | 113.70514 | 5883 ft | 275 kts | 185° |
| 2026-04-23 12:55 | 28.05138 | 113.70315 | 5879 ft | 273 kts | 188° |
| 2026-04-23 12:55 | 28.03347 | 113.69808 | 5876 ft | 256 kts | 206° |
| 2026-04-23 12:55 | 28.02007 | 113.68625 | 5882 ft | 236 kts | 236° |
| 2026-04-23 12:56 | 28.01281 | 113.67027 | 5889 ft | 224 kts | 255° |
| 2026-04-23 12:56 | 28.00918 | 113.65327 | 5887 ft | 222 kts | 266° |
| 2026-04-23 12:56 | 28.00819 | 113.63614 | 5886 ft | 220 kts | 272° |
| 2026-04-23 12:56 | 28.00787 | 113.61863 | 5886 ft | 220 kts | 272° |
| 2026-04-23 12:57 | 28.00731 | 113.60149 | 5886 ft | 220 kts | 272° |
| 2026-04-23 12:57 | 28.00654 | 113.58421 | 5888 ft | 220 kts | 271° |
| 2026-04-23 12:57 | 28.00571 | 113.56670 | 5888 ft | 220 kts | 271° |
| 2026-04-23 12:57 | 28.00490 | 113.54954 | 5888 ft | 220 kts | 271° |
| 2026-04-23 12:58 | 28.00409 | 113.53209 | 5886 ft | 220 kts | 271° |
| 2026-04-23 12:58 | 28.00293 | 113.51490 | 5887 ft | 222 kts | 265° |
| 2026-04-23 12:58 | 27.99863 | 113.49803 | 5787 ft | 228 kts | 252° |
| 2026-04-23 12:58 | 27.99218 | 113.48151 | 5540 ft | 228 kts | 249° |
| 2026-04-23 12:59 | 27.98576 | 113.46512 | 5311 ft | 225 kts | 250° |
| 2026-04-23 12:59 | 27.97982 | 113.44897 | 5158 ft | 222 kts | 251° |
| 2026-04-23 12:59 | 27.97408 | 113.43284 | 4958 ft | 222 kts | 252° |
| 2026-04-23 12:59 | 27.96830 | 113.41654 | 4866 ft | 220 kts | 252° |
| 2026-04-23 13:00 | 27.96258 | 113.40043 | 4805 ft | 221 kts | 252° |
| 2026-04-23 13:00 | 27.95678 | 113.38419 | 4731 ft | 220 kts | 251° |
| 2026-04-23 13:00 | 27.95112 | 113.36826 | 4655 ft | 220 kts | 254° |
| 2026-04-23 13:00 | 27.94770 | 113.35132 | 4457 ft | 219 kts | 269° |
| 2026-04-23 13:01 | 27.94724 | 113.33433 | 4193 ft | 218 kts | 273° |
| 2026-04-23 13:01 | 27.94702 | 113.31897 | 3993 ft | 215 kts | 272° |
| 2026-04-23 13:01 | 27.94650 | 113.30421 | 3781 ft | 212 kts | 270° |
| 2026-04-23 13:01 | 27.94569 | 113.28722 | 3569 ft | 207 kts | 270° |
| 2026-04-23 13:02 | 27.94498 | 113.27349 | 3552 ft | 194 kts | 271° |
| 2026-04-23 13:02 | 27.94579 | 113.25895 | 3542 ft | 175 kts | 290° |
| 2026-04-23 13:02 | 27.95172 | 113.24784 | 3536 ft | 162 kts | 322° |
| 2026-04-23 13:02 | 27.96157 | 113.24230 | 3538 ft | 157 kts | 345° |
| 2026-04-23 13:03 | 27.97214 | 113.23925 | 3534 ft | 156 kts | 349° |
| 2026-04-23 13:03 | 27.98287 | 113.23729 | 3540 ft | 153 kts | 354° |
| 2026-04-23 13:03 | 27.99345 | 113.23763 | 3462 ft | 149 kts | 9° |
| 2026-04-23 13:03 | 28.00308 | 113.24117 | 3382 ft | 145 kts | 24° |
| 2026-04-23 13:04 | 28.01293 | 113.24409 | 3302 ft | 148 kts | 354° |
| 2026-04-23 13:04 | 28.02198 | 113.23888 | 3150 ft | 151 kts | 313° |
| 2026-04-23 13:04 | 28.02643 | 113.22819 | 3131 ft | 147 kts | 298° |
| 2026-04-23 13:04 | 28.03274 | 113.21905 | 3192 ft | 155 kts | 330° |
| 2026-04-23 13:05 | 28.04280 | 113.21601 | 2875 ft | 156 kts | 6° |
| 2026-04-23 13:05 | 28.05252 | 113.21965 | 2816 ft | 137 kts | 22° |
| 2026-04-23 13:05 | 28.06187 | 113.22267 | 2961 ft | 141 kts | 7° |
| 2026-04-23 13:05 | 28.07144 | 113.22294 | 3439 ft | 137 kts | 356° |
| 2026-04-23 13:06 | 28.08281 | 113.21497 | 4266 ft | 136 kts | 306° |
| 2026-04-23 13:06 | 28.08966 | 113.21001 | 4626 ft | 114 kts | 359° |
| 2026-04-23 13:06 | 28.09802 | 113.21334 | 4478 ft | 141 kts | 23° |
| 2026-04-23 13:07 | 28.10785 | 113.21716 | 4420 ft | 155 kts | 17° |
| 2026-04-23 13:07 | 28.11906 | 113.22107 | 4301 ft | 172 kts | 9° |
| 2026-04-23 13:07 | 28.12649 | 113.22038 | 5893 ft | 72 kts | 324° |
| 2026-04-23 13:07 | 28.13077 | 113.21609 | 5343 ft | 147 kts | 334° |
| 2026-04-23 13:08 | 28.14063 | 113.21303 | 5276 ft | 136 kts | 357° |
| 2026-04-23 13:08 | 28.14982 | 113.21419 | 5691 ft | 139 kts | 13° |
| 2026-04-23 13:08 | 28.15926 | 113.21806 | 5956 ft | 155 kts | 19° |
| 2026-04-23 13:08 | 28.17019 | 113.22210 | 6040 ft | 179 kts | 9° |
| 2026-04-23 13:09 | 28.18316 | 113.22291 | 6090 ft | 183 kts | 358° |
| 2026-04-23 13:09 | 28.19627 | 113.22208 | 6122 ft | 207 kts | 355° |
| 2026-04-23 13:09 | 28.21083 | 113.22069 | 5710 ft | 210 kts | 356° |
| 2026-04-23 13:09 | 28.22523 | 113.22113 | 5284 ft | 205 kts | 10° |
| 2026-04-23 13:10 | 28.23822 | 113.22774 | 4871 ft | 208 kts | 31° |
| 2026-04-23 13:10 | 28.24964 | 113.23674 | 4593 ft | 194 kts | 33° |
| 2026-04-23 13:10 | 28.26077 | 113.24526 | 4343 ft | 190 kts | 31° |
| 2026-04-23 13:10 | 28.27179 | 113.25336 | 4104 ft | 186 kts | 30° |
| 2026-04-23 13:11 | 28.28188 | 113.26234 | 3858 ft | 185 kts | 48° |
| 2026-04-23 13:11 | 28.28671 | 113.27553 | 3766 ft | 179 kts | 77° |
| 2026-04-23 13:11 | 28.28702 | 113.28918 | 3756 ft | 166 kts | 90° |
| 2026-04-23 13:11 | 28.28388 | 113.30141 | 3744 ft | 164 kts | 116° |
| 2026-04-23 13:12 | 28.27640 | 113.31118 | 3743 ft | 167 kts | 136° |
| 2026-04-23 13:12 | 28.26617 | 113.31828 | 3739 ft | 181 kts | 158° |
| 2026-04-23 13:12 | 28.25326 | 113.32162 | 3757 ft | 199 kts | 170° |
| 2026-04-23 13:12 | 28.23910 | 113.32429 | 3767 ft | 204 kts | 168° |
| 2026-04-23 13:13 | 28.22556 | 113.32719 | 3759 ft | 192 kts | 167° |
| 2026-04-23 13:13 | 28.21242 | 113.33023 | 3757 ft | 192 kts | 167° |
| 2026-04-23 13:13 | 28.19934 | 113.33325 | 3752 ft | 191 kts | 167° |
| 2026-04-23 13:13 | 28.18615 | 113.33624 | 3751 ft | 191 kts | 167° |
| 2026-04-23 13:14 | 28.17314 | 113.33918 | 3747 ft | 191 kts | 167° |
| 2026-04-23 13:14 | 28.15986 | 113.34222 | 3746 ft | 192 kts | 167° |
| 2026-04-23 13:14 | 28.14667 | 113.34526 | 3746 ft | 189 kts | 167° |
| 2026-04-23 13:14 | 28.13367 | 113.34827 | 3751 ft | 192 kts | 167° |
| 2026-04-23 13:15 | 28.12033 | 113.35130 | 3755 ft | 192 kts | 167° |
| 2026-04-23 13:15 | 28.10714 | 113.35391 | 3758 ft | 192 kts | 172° |
| 2026-04-23 13:15 | 28.09350 | 113.35497 | 3763 ft | 193 kts | 177° |
| 2026-04-23 13:15 | 28.07995 | 113.35547 | 3767 ft | 192 kts | 177° |
| 2026-04-23 13:16 | 28.06678 | 113.35609 | 3766 ft | 192 kts | 176° |
| 2026-04-23 13:16 | 28.05325 | 113.35689 | 3766 ft | 190 kts | 176° |
| 2026-04-23 13:16 | 28.03995 | 113.35768 | 3767 ft | 193 kts | 176° |
| 2026-04-23 13:16 | 28.02647 | 113.35849 | 3765 ft | 190 kts | 176° |
| 2026-04-23 13:17 | 28.01300 | 113.35930 | 3768 ft | 192 kts | 176° |
| 2026-04-23 13:17 | 27.99973 | 113.36011 | 3771 ft | 192 kts | 176° |
| 2026-04-23 13:17 | 27.98607 | 113.36094 | 3771 ft | 194 kts | 176° |
| 2026-04-23 13:17 | 27.97265 | 113.36124 | 3767 ft | 191 kts | 186° |
| 2026-04-23 13:18 | 27.96075 | 113.35500 | 3764 ft | 191 kts | 233° |
| 2026-04-23 13:18 | 27.95622 | 113.34150 | 3770 ft | 183 kts | 269° |
| 2026-04-23 13:18 | 27.95573 | 113.32727 | 3726 ft | 183 kts | 274° |
| 2026-04-23 13:18 | 27.95616 | 113.31301 | 3671 ft | 179 kts | 278° |
| 2026-04-23 13:19 | 27.95787 | 113.29891 | 3594 ft | 180 kts | 285° |
| 2026-04-23 13:19 | 27.96106 | 113.28526 | 3483 ft | 175 kts | 292° |
| 2026-04-23 13:19 | 27.96562 | 113.27269 | 3468 ft | 175 kts | 300° |
| 2026-04-23 13:19 | 27.97186 | 113.26069 | 3279 ft | 175 kts | 308° |
| 2026-04-23 13:20 | 27.97969 | 113.25024 | 3030 ft | 173 kts | 318° |
| 2026-04-23 13:20 | 27.98912 | 113.24216 | 2785 ft | 169 kts | 336° |
| 2026-04-23 13:20 | 28.00027 | 113.23838 | 2543 ft | 166 kts | 349° |
| 2026-04-23 13:20 | 28.01172 | 113.23612 | 2323 ft | 162 kts | 353° |
| 2026-04-23 13:21 | 28.02264 | 113.23468 | 2260 ft | 150 kts | 355° |
| 2026-04-23 13:21 | 28.03293 | 113.23370 | 2165 ft | 148 kts | 356° |
| 2026-04-23 13:21 | 28.04332 | 113.23305 | 2039 ft | 147 kts | 359° |
| 2026-04-23 13:21 | 28.05347 | 113.23255 | 1859 ft | 141 kts | 357° |
| 2026-04-23 13:22 | 28.06318 | 113.23199 | 1705 ft | 138 kts | 358° |
| 2026-04-23 13:22 | 28.07265 | 113.23141 | 1626 ft | 136 kts | 356° |
| 2026-04-23 13:22 | 28.08204 | 113.23060 | 1561 ft | 132 kts | 356° |
| 2026-04-23 13:22 | 28.09096 | 113.23002 | 1414 ft | 126 kts | 357° |
| 2026-04-23 13:23 | 28.09984 | 113.22945 | 1280 ft | 125 kts | 356° |
| 2026-04-23 13:23 | 28.10855 | 113.22889 | 1197 ft | 125 kts | 355° |
| 2026-04-23 13:23 | 28.11720 | 113.22831 | 1139 ft | 126 kts | 357° |
| 2026-04-23 13:23 | 28.12613 | 113.22768 | 1066 ft | 126 kts | 356° |
| 2026-04-23 13:24 | 28.13494 | 113.22712 | 957 ft | 126 kts | 356° |
| 2026-04-23 13:24 | 28.14371 | 113.22649 | 842 ft | 126 kts | 356° |
| 2026-04-23 13:24 | 28.15256 | 113.22597 | 675 ft | 125 kts | 356° |
| 2026-04-23 13:24 | 28.16123 | 113.22543 | 520 ft | 123 kts | 359° |
| 2026-04-23 13:25 | 28.16979 | 113.22486 | 364 ft | 124 kts | 356° |
| 2026-04-23 13:25 | 28.17847 | 113.22445 | 256 ft | 124 kts | 356° |
| 2026-04-23 13:25 | 28.18695 | 113.22382 | 228 ft | 117 kts | 356° |
| 2026-04-23 13:25 | 28.19394 | 113.22335 | 227 ft | 82 kts | 357° |
| 2026-04-23 13:26 | 28.19872 | 113.22306 | 227 ft | 57 kts | 356° |
| 2026-04-23 13:26 | 28.20231 | 113.22283 | 227 ft | 38 kts | 356° |
| 2026-04-23 13:26 | 28.20468 | 113.22268 | 227 ft | 20 kts | 356° |
| 2026-04-23 13:26 | 28.20562 | 113.22227 | 227 ft | 13 kts | 294° |
| 2026-04-23 13:27 | 28.20569 | 113.22176 | 227 ft | 5 kts | 270° |
| 2026-04-23 13:27 | 28.20568 | 113.22143 | 227 ft | 2 kts | 269° |
| 2026-04-23 13:27 | 28.20567 | 113.22118 | 227 ft | 3 kts | 264° |
| 2026-04-23 13:27 | 28.20559 | 113.22091 | 227 ft | 4 kts | 235° |
| 2026-04-23 13:28 | 28.20534 | 113.22074 | 227 ft | 4 kts | 193° |
| 2026-04-23 13:28 | 28.20491 | 113.22074 | 227 ft | 8 kts | 177° |
| 2026-04-23 13:28 | 28.20433 | 113.22078 | 227 ft | 8 kts | 176° |
| 2026-04-23 13:28 | 28.20375 | 113.22082 | 227 ft | 8 kts | 177° |
| 2026-04-23 13:29 | 28.20319 | 113.22085 | 227 ft | 8 kts | 177° |
| 2026-04-23 13:29 | 28.20263 | 113.22088 | 227 ft | 8 kts | 176° |
| 2026-04-23 13:29 | 28.20207 | 113.22092 | 227 ft | 7 kts | 176° |
| 2026-04-23 13:29 | 28.20151 | 113.22096 | 227 ft | 7 kts | 176° |
| 2026-04-23 13:30 | 28.20098 | 113.22087 | 227 ft | 7 kts | 213° |
| 2026-04-23 13:30 | 28.20076 | 113.22034 | 227 ft | 7 kts | 263° |
| 2026-04-23 13:30 | 28.20072 | 113.21974 | 227 ft | 7 kts | 265° |
| 2026-04-23 13:30 | 28.20069 | 113.21915 | 227 ft | 7 kts | 267° |
| 2026-04-23 13:31 | 28.20067 | 113.21855 | 227 ft | 7 kts | 267° |
| 2026-04-23 13:31 | 28.20065 | 113.21795 | 227 ft | 7 kts | 267° |
| 2026-04-23 13:31 | 28.20052 | 113.21738 | 227 ft | 7 kts | 230° |
| 2026-04-23 13:31 | 28.20005 | 113.21721 | 227 ft | 7 kts | 180° |
| 2026-04-23 13:32 | 28.19944 | 113.21725 | 227 ft | 7 kts | 176° |
| 2026-04-23 13:32 | 28.19893 | 113.21728 | 227 ft | 7 kts | 176° |
| 2026-04-23 13:32 | 28.19843 | 113.21731 | 227 ft | 7 kts | 176° |
| 2026-04-23 13:32 | 28.19793 | 113.21734 | 227 ft | 7 kts | 176° |
| 2026-04-23 13:33 | 28.19728 | 113.21738 | 227 ft | 11 kts | 177° |
| 2026-04-23 13:33 | 28.19630 | 113.21744 | 227 ft | 14 kts | 176° |
| 2026-04-23 13:33 | 28.19535 | 113.21750 | 227 ft | 11 kts | 176° |
| 2026-04-23 13:33 | 28.19465 | 113.21755 | 227 ft | 7 kts | 176° |
| 2026-04-23 13:34 | 28.19428 | 113.21753 | 227 ft | 4 kts | 198° |
| 2026-04-23 13:34 | 28.19405 | 113.21725 | 227 ft | 4 kts | 247° |
| 2026-04-23 13:34 | 28.19400 | 113.21687 | 227 ft | 4 kts | 263° |
| 2026-04-23 13:34 | 28.19388 | 113.21651 | 227 ft | 4 kts | 242° |
| 2026-04-23 13:35 | 28.19371 | 113.21617 | 227 ft | 4 kts | 238° |
| 2026-04-23 13:35 | 28.19356 | 113.21590 | 227 ft | 4 kts | 239° |
| 2026-04-23 13:35 | 28.19346 | 113.21571 | 227 ft | 2 kts | 240° |
| 2026-04-23 13:35 | 28.19339 | 113.21557 | 227 ft | 1 kts | 239° |
| 2026-04-23 13:36 | 28.19335 | 113.21549 | 227 ft | 0 kts | 239° |
| 2026-04-23 13:36 | 28.19334 | 113.21547 | 227 ft | 0 kts | 239° |